Time;durP1;ratioP1;P1;durP2;ratioP2;P2;SDS_P1;SDS_P2;PMS_P1;PMS_P2;Temp;Humidity;BMP_temperature;BMP_pressure;BME280_temperature;BME280_humidity;BME280_pressure;Samples;Min_cycle;Max_cycle;Signal;HPM_P1;HPM_P2
2022/09/14 00:01:12;;;;;;;4.72;3.83;;;;;;;11.43;100.00;99475.80;1753515;81;21015;-70
2022/09/14 00:03:38;;;;;;;4.15;3.37;;;;;;;11.41;100.00;99481.84;1744271;81;20996;-71
2022/09/14 00:06:09;;;;;;;3.17;2.87;;;;;;;11.41;100.00;99481.84;1753029;81;21030;-72
2022/09/14 00:08:37;;;;;;;3.70;3.40;;;;;;;11.39;100.00;99475.91;1733223;81;20985;-71
2022/09/14 00:11:11;;;;;;;3.60;3.30;;;;;;;11.38;100.00;99475.62;1760734;80;21025;-70
2022/09/14 00:13:40;;;;;;;3.60;3.33;;;;;;;11.39;100.00;99477.77;1739442;80;21049;-70
2022/09/14 00:16:15;;;;;;;3.50;3.20;;;;;;;11.39;100.00;99483.91;1743100;81;21007;-72
2022/09/14 00:18:43;;;;;;;4.15;3.70;;;;;;;11.38;100.00;99479.62;1744535;81;21152;-71
2022/09/14 00:21:11;;;;;;;3.30;3.00;;;;;;;11.37;100.00;99477.97;1758266;81;20921;-75
2022/09/14 00:23:40;;;;;;;5.05;3.65;;;;;;;11.39;100.00;99470.56;1751922;81;21023;-70
2022/09/14 00:26:11;;;;;;;4.67;3.50;;;;;;;11.39;100.00;99473.76;1732886;81;21040;-74
2022/09/14 00:28:41;;;;;;;4.12;3.80;;;;;;;11.35;100.00;99477.37;1772962;78;20966;-70
2022/09/14 00:31:08;;;;;;;4.70;3.75;;;;;;;11.35;100.00;99473.37;1761112;81;21047;-71
2022/09/14 00:33:36;;;;;;;4.65;4.25;;;;;;;11.39;100.00;99471.91;1738397;81;21014;-70
2022/09/14 00:36:09;;;;;;;5.83;3.87;;;;;;;11.41;100.00;99473.03;1726394;81;20975;-70
2022/09/14 00:38:36;;;;;;;4.35;4.00;;;;;;;11.39;100.00;99470.56;1737470;81;21036;-71
2022/09/14 00:41:06;;;;;;;4.53;4.12;;;;;;;11.38;100.00;99473.47;1779928;78;21453;-76
2022/09/14 00:43:53;;;;;;;4.95;4.65;;;;;;;11.36;100.00;99466.17;1792931;79;20990;-71
2022/09/14 00:46:20;;;;;;;4.22;3.92;;;;;;;11.35;100.00;99472.03;1762238;78;21512;-70
2022/09/14 00:48:46;;;;;;;4.67;4.12;;;;;;;11.34;100.00;99469.58;1768704;78;21333;-70
2022/09/14 00:51:14;;;;;;;;;;;;;;;11.32;100.00;99468.97;1779909;79;21068;-76
2022/09/14 00:53:40;;;;;;;;;;;;;;;11.32;100.00;99473.81;1783584;79;20186;-70
2022/09/14 00:56:06;;;;;;;4.83;4.45;;;;;;;11.28;100.00;99470.75;1788482;79;20092;-70
2022/09/14 00:58:33;;;;;;;5.05;4.40;;;;;;;11.24;100.00;99470.05;1750807;81;20944;-71
2022/09/14 01:01:01;;;;;;;4.55;4.15;;;;;;;11.27;100.00;99469.63;1735711;81;21029;-76
2022/09/14 01:03:28;;;;;;;5.37;4.97;;;;;;;11.29;100.00;99472.38;1763055;80;21500;-70
2022/09/14 01:06:20;;;;;;;4.65;4.35;;;;;;;11.33;100.00;99467.95;1746641;81;21458;-71
2022/09/14 01:09:13;;;;;;;5.00;3.77;;;;;;;11.38;100.00;99471.61;1737830;81;21115;-70
2022/09/14 01:11:59;;;;;;;5.70;4.60;;;;;;;11.39;100.00;99468.42;1747328;81;21610;-73
2022/09/14 01:14:51;;;;;;;6.22;3.90;;;;;;;11.37;100.00;99465.96;1726214;81;21493;-70
2022/09/14 01:17:38;;;;;;;3.67;3.47;;;;;;;11.38;100.00;99460.94;1734266;80;21028;-70
2022/09/14 01:20:25;;;;;;;5.78;5.20;;;;;;;11.39;100.00;99457.23;1729783;81;21069;-70
2022/09/14 01:23:19;;;;;;;4.10;3.80;;;;;;;11.43;100.00;99458.95;1749115;81;21027;-69
2022/09/14 01:26:11;;;;;;;4.33;4.03;;;;;;;11.45;100.00;99460.39;1766285;81;21726;-71
2022/09/14 01:29:14;;;;;;;4.78;4.33;;;;;;;11.46;100.00;99461.20;1717989;81;21062;-70
2022/09/14 01:31:54;;;;;;;5.50;3.60;;;;;;;11.49;100.00;99461.59;1760676;81;20980;-70
2022/09/14 01:34:29;;;;;;;4.42;4.00;;;;;;;11.55;100.00;99447.09;1749647;81;21436;-71
2022/09/14 01:37:03;;;;;;;3.80;3.50;;;;;;;11.57;100.00;99452.50;1750039;80;21018;-70
2022/09/14 01:39:32;;;;;;;4.58;4.17;;;;;;;11.59;100.00;99451.77;1741584;80;21516;-71
2022/09/14 01:42:00;;;;;;;7.75;3.67;;;;;;;11.60;100.00;99450.74;1757673;80;20961;-69
2022/09/14 01:44:36;;;;;;;3.87;3.55;;;;;;;11.63;100.00;99449.48;1736839;81;20961;-70
2022/09/14 01:47:14;;;;;;;4.12;3.80;;;;;;;11.63;100.00;99450.30;1747923;80;21096;-70
2022/09/14 01:49:45;;;;;;;3.55;3.25;;;;;;;11.67;100.00;99448.81;1754968;80;20945;-70
2022/09/14 01:52:26;;;;;;;3.83;3.62;;;;;;;11.72;100.00;99454.86;1737045;81;21049;-70
2022/09/14 01:55:06;;;;;;;3.40;3.20;;;;;;;11.78;100.00;99451.84;1748287;79;21108;-69
2022/09/14 01:57:40;;;;;;;3.00;2.90;;;;;;;11.80;100.00;99446.56;1732017;81;21076;-73
2022/09/14 02:00:15;;;;;;;4.03;3.72;;;;;;;11.81;100.00;99443.38;1756211;81;20967;-71
2022/09/14 02:02:57;;;;;;;2.58;2.45;;;;;;;11.80;100.00;99435.89;1750589;81;21009;-70
2022/09/14 02:06:21;;;;;;;4.20;3.58;;;;;;;11.79;100.00;99434.77;1735037;81;21566;-68
2022/09/14 02:08:50;;;;;;;4.40;3.30;;;;;;;11.75;100.00;99430.90;1744710;81;21107;-70
2022/09/14 02:11:16;;;;;;;3.92;3.05;;;;;;;11.71;100.00;99427.84;1774437;79;21134;-70
2022/09/14 02:13:43;;;;;;;2.60;2.50;;;;;;;11.71;100.00;99429.70;1771338;79;21550;-70
2022/09/14 02:16:09;;;;;;;3.92;3.25;;;;;;;11.72;100.00;99421.48;1778779;78;21492;-70
2022/09/14 02:18:38;;;;;;;2.85;2.65;;;;;;;11.74;100.00;99422.08;1767441;78;20970;-70
2022/09/14 02:21:10;;;;;;;3.62;3.33;;;;;;;11.74;100.00;99416.75;1768639;81;20980;-72
2022/09/14 02:23:37;;;;;;;3.62;3.33;;;;;;;11.75;100.00;99417.55;1752913;80;21144;-71
2022/09/14 02:26:04;;;;;;;3.02;2.83;;;;;;;11.75;100.00;99415.69;1727284;81;20986;-70
2022/09/14 02:28:30;;;;;;;3.60;2.40;;;;;;;11.78;100.00;99421.13;1782373;79;21081;-70
2022/09/14 02:31:26;;;;;;;2.85;2.65;;;;;;;11.81;100.00;99419.34;1765910;81;21508;-70
2022/09/14 02:34:29;;;;;;;3.00;2.60;;;;;;;11.81;100.00;99417.52;1671436;84;21021;-70
2022/09/14 02:37:19;;;;;;;2.15;2.05;;;;;;;11.80;100.00;99417.72;1725906;82;20972;-70
2022/09/14 02:40:15;;;;;;;3.33;3.10;;;;;;;11.81;100.00;99421.52;1715678;81;21025;-77
2022/09/14 02:42:56;;;;;;;2.30;2.20;;;;;;;11.82;100.00;99416.45;1743040;81;21020;-70
2022/09/14 02:45:50;;;;;;;2.45;2.25;;;;;;;11.82;100.00;99415.65;1749210;81;22021;-72
2022/09/14 02:48:47;;;;;;;3.10;2.85;;;;;;;11.84;100.00;99411.72;1745391;81;21084;-72
2022/09/14 02:51:31;;;;;;;2.60;2.40;;;;;;;11.84;100.00;99414.91;1729276;81;21051;-70
2022/09/14 02:54:17;;;;;;;2.08;1.98;;;;;;;11.83;100.00;99413.29;1782439;79;21101;-71
2022/09/14 02:56:44;;;;;;;2.60;2.40;;;;;;;11.83;100.00;99415.44;1751909;80;21061;-70
2022/09/14 02:59:11;;;;;;;3.67;2.80;;;;;;;11.84;100.00;99404.23;1729459;81;21069;-71
2022/09/14 03:01:38;;;;;;;2.75;2.52;;;;;;;11.84;100.00;99401.03;1731855;82;20982;-72
2022/09/14 03:04:04;;;;;;;3.00;2.27;;;;;;;11.85;100.00;99402.68;1755658;80;21019;-70
2022/09/14 03:06:30;;;;;;;;;;;;;;;11.87;100.00;99398.46;1741145;80;21113;-71
2022/09/14 03:08:56;;;;;;;2.02;1.92;;;;;;;11.91;100.00;99398.87;1722381;81;21009;-70
2022/09/14 03:11:22;;;;;;;2.72;2.62;;;;;;;11.85;100.00;99396.00;1754587;81;21754;-70
2022/09/14 03:13:48;;;;;;;;;;;;;;;11.85;100.00;99400.53;1754939;81;21132;-70
2022/09/14 03:16:17;;;;;;;2.15;2.05;;;;;;;11.85;100.00;99401.88;1728952;81;20148;-70
2022/09/14 03:18:43;;;;;;;1.98;1.82;;;;;;;11.79;100.00;99406.23;1747741;81;20986;-70
2022/09/14 03:21:15;;;;;;;2.90;1.65;;;;;;;11.79;100.00;99409.40;1781674;79;22041;-71
2022/09/14 03:23:45;;;;;;;2.10;2.00;;;;;;;11.83;100.00;99401.28;1761756;81;21008;-70
2022/09/14 03:26:16;;;;;;;3.17;3.00;;;;;;;11.86;100.00;99399.48;1755197;80;21045;-70
2022/09/14 03:28:43;;;;;;;2.17;2.08;;;;;;;11.91;100.00;99402.88;1752983;81;20939;-70
2022/09/14 03:31:11;;;;;;;2.70;1.92;;;;;;;11.96;100.00;99405.19;1748616;81;20989;-71
2022/09/14 03:33:38;;;;;;;2.75;1.27;;;;;;;12.01;100.00;99401.84;1733615;80;20959;-70
2022/09/14 03:36:15;;;;;;;2.30;2.08;;;;;;;11.98;100.00;99399.10;1782258;79;21019;-70
2022/09/14 03:38:45;;;;;;;4.60;1.92;;;;;;;11.98;100.00;99402.27;1768597;79;21100;-73
2022/09/14 03:41:12;;;;;;;1.87;1.77;;;;;;;11.99;100.00;99399.91;1760502;80;21034;-71
2022/09/14 03:43:40;;;;;;;1.85;1.75;;;;;;;11.98;100.00;99403.11;1762327;80;21620;-72
2022/09/14 03:46:10;;;;;;;2.50;2.12;;;;;;;11.97;100.00;99401.98;1760055;80;21529;-69
2022/09/14 03:48:37;;;;;;;1.90;1.90;;;;;;;11.94;100.00;99410.43;1746868;80;20985;-70
2022/09/14 03:51:06;;;;;;;1.70;1.70;;;;;;;11.92;100.00;99405.83;1755413;81;20969;-70
2022/09/14 03:53:33;;;;;;;4.67;1.30;;;;;;;11.90;100.00;99415.91;1745710;81;21066;-69
2022/09/14 03:56:00;;;;;;;3.65;2.20;;;;;;;11.88;100.00;99412.94;1737395;81;21060;-69
2022/09/14 03:58:30;;;;;;;2.37;2.10;;;;;;;11.87;100.00;99419.30;1737742;81;21063;-70
2022/09/14 04:00:56;;;;;;;1.82;1.72;;;;;;;11.91;100.00;99424.23;1740146;81;21009;-71
2022/09/14 04:03:22;;;;;;;1.72;1.62;;;;;;;11.95;100.00;99420.09;1711973;82;20989;-71
2022/09/14 04:05:55;;;;;;;1.72;1.62;;;;;;;11.66;100.00;99365.78;1723927;81;21532;-69
2022/09/14 04:08:22;;;;;;;1.87;1.77;;;;;;;11.99;100.00;99418.08;1727523;81;21046;-69
2022/09/14 04:10:48;;;;;;;3.62;1.50;;;;;;;11.97;100.00;99416.67;1701174;82;20990;-70
2022/09/14 04:13:15;;;;;;;1.00;1.00;;;;;;;11.95;100.00;99420.09;1702609;82;21049;-69
2022/09/14 04:15:41;;;;;;;2.90;2.62;;;;;;;11.98;100.00;99420.47;1743311;80;21095;-71
2022/09/14 04:18:07;;;;;;;3.55;1.90;;;;;;;12.06;100.00;99419.37;1771554;79;20990;-68
2022/09/14 04:20:34;;;;;;;;;;;;;;;12.17;100.00;99423.17;1754174;80;21045;-68
2022/09/14 04:23:01;;;;;;;2.25;1.55;;;;;;;12.31;100.00;99425.98;1760084;79;20171;-71
2022/09/14 04:25:27;;;;;;;2.00;1.90;;;;;;;12.53;100.00;99429.57;1774732;80;21061;-70
2022/09/14 04:27:54;;;;;;;;;;;;;;;13.02;100.00;99427.19;1767784;79;20943;-70
2022/09/14 04:30:20;;;;;;;1.22;1.12;;;;;;;13.44;97.24;99435.27;1767961;80;20164;-67
2022/09/14 04:32:46;;;;;;;1.15;1.07;;;;;;;13.59;92.75;99434.02;1724960;81;21047;-67
2022/09/14 04:35:12;;;;;;;1.12;1.10;;;;;;;13.51;92.25;99435.17;1757080;80;21018;-69
2022/09/14 04:37:38;;;;;;;1.45;1.35;;;;;;;13.53;91.81;99441.11;1701250;81;20994;-68
2022/09/14 04:40:06;;;;;;;0.98;0.50;;;;;;;13.94;90.72;99431.39;1726241;81;21039;-73
2022/09/14 04:42:33;;;;;;;0.90;0.90;;;;;;;14.69;86.99;99434.36;1761304;79;21085;-73
2022/09/14 04:44:59;;;;;;;1.37;1.27;;;;;;;15.32;84.14;99428.05;1780611;78;20945;-75
2022/09/14 04:47:25;;;;;;;;;;;;;;;16.01;79.19;99428.90;1784331;79;21107;-73
2022/09/14 04:49:51;;;;;;;2.70;1.42;;;;;;;16.58;74.38;99426.47;1771360;79;20322;-72
2022/09/14 04:52:17;;;;;;;0.88;0.85;;;;;;;16.61;74.55;99422.72;1766298;79;21158;-71
2022/09/14 04:54:43;;;;;;;0.80;0.80;;;;;;;16.57;74.92;99422.14;1766739;80;21327;-71
2022/09/14 04:57:09;;;;;;;;;;;;;;;16.44;74.79;99420.63;1758080;80;21017;-72
2022/09/14 04:59:35;;;;;;;0.68;0.68;;;;;;;16.30;74.87;99420.98;1752253;80;20187;-72
2022/09/14 05:02:01;;;;;;;;;;;;;;;15.95;74.33;99406.51;1757299;79;20907;-72
2022/09/14 05:04:27;;;;;;;4.12;1.37;;;;;;;15.66;75.75;99418.67;1762432;79;20252;-75
2022/09/14 05:08:55;;;;;;;0.82;0.82;;;;;;;15.20;78.84;99416.56;1765030;79;22800;-70
2022/09/14 05:11:28;;;;;;;0.82;0.82;;;;;;;15.06;79.22;99421.94;1697237;83;21543;-70
2022/09/14 05:13:56;;;;;;;1.02;0.80;;;;;;;14.89;79.12;99433.42;1701614;82;21446;-70
2022/09/14 05:16:32;;;;;;;1.10;0.50;;;;;;;14.56;79.08;99434.05;1711225;82;21265;-70
2022/09/14 05:19:03;;;;;;;0.75;0.70;;;;;;;14.30;80.91;99426.02;1676666;84;21480;-71
2022/09/14 05:21:33;;;;;;;1.47;1.20;;;;;;;14.17;81.75;99430.56;1674706;84;21663;-71
2022/09/14 05:24:04;;;;;;;1.12;0.80;;;;;;;14.10;82.29;99439.24;1683046;84;21085;-70
2022/09/14 05:26:32;;;;;;;0.75;0.75;;;;;;;13.97;82.37;99444.83;1665272;85;21039;-75
2022/09/14 05:29:01;;;;;;;2.20;1.12;;;;;;;13.78;83.50;99436.89;1688007;84;21060;-71
2022/09/14 05:31:31;;;;;;;8.93;1.35;;;;;;;13.59;83.87;99438.04;1658794;84;21043;-72
2022/09/14 05:33:58;;;;;;;4.67;0.85;;;;;;;13.49;84.95;99447.17;1668370;84;21046;-72
2022/09/14 05:36:25;;;;;;;1.92;1.72;;;;;;;13.41;85.53;99440.25;1697655;84;21099;-71
2022/09/14 05:38:51;;;;;;;1.87;1.77;;;;;;;13.29;86.06;99438.05;1654952;85;21141;-70
2022/09/14 05:41:17;;;;;;;;;;;;;;;13.23;86.58;99442.45;1677318;82;21521;-70
2022/09/14 05:43:44;;;;;;;2.70;2.50;;;;;;;13.17;86.14;99437.48;1707575;83;20406;-71
2022/09/14 05:46:13;;;;;;;;;;;;;;;13.04;87.56;99433.66;1710155;84;21047;-71
2022/09/14 05:48:39;;;;;;;3.17;2.90;;;;;;;13.01;87.66;99436.77;1699203;84;20405;-72
2022/09/14 05:51:13;;;;;;;3.77;1.27;;;;;;;12.96;87.93;99440.64;1707968;84;21030;-71
2022/09/14 05:53:39;;;;;;;1.30;0.93;;;;;;;12.97;88.40;99441.76;1689325;84;21169;-73
2022/09/14 05:56:09;;;;;;;1.55;1.45;;;;;;;13.00;88.48;99445.86;1680129;84;21004;-70
2022/09/14 05:58:37;;;;;;;4.22;1.05;;;;;;;12.99;89.04;99445.02;1709767;83;21547;-72
2022/09/14 06:01:17;;;;;;;1.37;1.22;;;;;;;13.01;89.14;99444.27;1705404;82;21028;-74
2022/09/14 06:03:45;;;;;;;1.45;1.45;;;;;;;13.04;89.65;99435.00;1705152;83;21549;-72
2022/09/14 06:06:16;;;;;;;3.02;2.12;;;;;;;13.10;89.83;99440.77;1686184;83;21600;-76
2022/09/14 06:08:43;;;;;;;1.65;0.88;;;;;;;13.14;89.58;99435.25;1691762;83;21059;-73
2022/09/14 06:11:14;;;;;;;1.12;1.12;;;;;;;13.25;89.41;99436.34;1672021;84;21048;-71
2022/09/14 06:13:41;;;;;;;1.40;1.30;;;;;;;13.31;89.45;99439.48;1699708;83;20983;-72
2022/09/14 06:16:12;;;;;;;2.05;1.47;;;;;;;13.36;88.09;99439.61;1698984;83;21042;-72
2022/09/14 06:18:41;;;;;;;1.35;1.20;;;;;;;13.41;88.64;99433.56;1697742;84;21058;-75
2022/09/14 06:21:09;;;;;;;1.62;1.50;;;;;;;13.53;88.23;99430.94;1670414;83;21057;-74
2022/09/14 06:23:37;;;;;;;1.82;1.70;;;;;;;13.64;87.54;99427.46;1697050;84;21177;-73
2022/09/14 06:26:05;;;;;;;1.22;1.17;;;;;;;13.72;86.82;99428.45;1703613;82;20963;-75
2022/09/14 06:28:32;;;;;;;1.17;1.17;;;;;;;13.78;86.03;99432.07;1696778;84;21025;-75
2022/09/14 06:31:03;;;;;;;1.02;0.95;;;;;;;13.79;85.94;99433.19;1697636;84;21030;-70
2022/09/14 06:33:30;;;;;;;3.22;3.12;;;;;;;13.78;85.99;99430.73;1696777;84;21027;-70
2022/09/14 06:36:06;;;;;;;2.20;2.10;;;;;;;13.78;85.90;99426.18;1667553;84;21382;-71
2022/09/14 06:38:32;;;;;;;1.20;1.20;;;;;;;13.80;86.48;99429.97;1679310;84;21022;-70
2022/09/14 06:41:01;;;;;;;1.92;1.62;;;;;;;13.85;85.83;99437.33;1697454;84;21037;-71
2022/09/14 06:43:31;;;;;;;1.32;1.22;;;;;;;13.88;85.03;99432.83;1684568;84;21090;-71
2022/09/14 06:46:02;;;;;;;1.75;1.65;;;;;;;13.88;84.08;99424.80;1685108;83;21009;-70
2022/09/14 06:48:37;;;;;;;2.00;1.52;;;;;;;13.85;84.26;99419.92;1665409;84;21094;-70
2022/09/14 06:51:24;;;;;;;0.95;0.95;;;;;;;13.90;84.59;99422.19;1658580;86;21052;-73
2022/09/14 06:53:52;;;;;;;2.15;0.93;;;;;;;13.98;83.91;99412.45;1645066;85;21040;-71
2022/09/14 06:56:20;;;;;;;1.60;1.55;;;;;;;14.08;83.43;99413.20;1665569;85;22171;-71
2022/09/14 06:58:46;;;;;;;;;;;;;;;14.17;83.20;99413.14;1675257;85;21070;-71
2022/09/14 07:01:15;;;;;;;1.30;1.20;;;;;;;14.31;82.94;99411.55;1659268;84;20477;-77
2022/09/14 07:03:42;;;;;;;1.25;1.25;;;;;;;14.39;82.42;99414.70;1630352;86;21059;-76
2022/09/14 07:06:14;;;;;;;2.95;2.75;;;;;;;14.53;82.37;99413.91;1662208;85;21050;-73
2022/09/14 07:08:41;;;;;;;2.62;1.77;;;;;;;14.73;81.90;99408.68;1661549;84;21050;-70
2022/09/14 07:11:10;;;;;;;2.72;1.50;;;;;;;14.96;81.31;99404.58;1647672;85;21577;-72
2022/09/14 07:13:37;;;;;;;2.95;1.37;;;;;;;15.14;78.81;99405.43;1662959;85;21026;-70
2022/09/14 07:16:04;;;;;;;;;;;;;;;15.28;78.44;99403.28;1663943;86;21127;-75
2022/09/14 07:18:31;;;;;;;;;;;;;;;15.42;77.32;99402.43;1636103;86;20139;-80
2022/09/14 07:21:06;;;;;;;1.77;1.27;;;;;;;15.53;77.25;99405.57;1646572;86;20170;-75
2022/09/14 07:23:36;;;;;;;1.25;1.25;;;;;;;15.60;75.79;99407.57;1641128;86;21118;-79
2022/09/14 07:26:08;;;;;;;1.52;1.52;;;;;;;15.69;76.93;99400.73;1667717;83;21048;-77
2022/09/14 07:28:35;;;;;;;2.47;1.57;;;;;;;15.84;75.52;99395.32;1640319;86;21147;-77
2022/09/14 07:31:03;;;;;;;1.47;1.47;;;;;;;15.94;75.03;99398.98;1629892;86;22216;-84
2022/09/14 07:33:31;;;;;;;1.50;1.50;;;;;;;16.04;73.97;99391.59;1664242;85;21003;-88
2022/09/14 07:36:07;;;;;;;2.55;1.72;;;;;;;16.04;73.97;99391.59;1659398;86;21501;-85
2022/09/14 07:38:33;;;;;;;1.62;1.37;;;;;;;16.11;73.43;99395.46;1664410;85;21040;-83
2022/09/14 07:41:00;;;;;;;2.35;1.62;;;;;;;16.15;73.81;99388.52;1667786;85;21170;-85
2022/09/14 07:43:27;;;;;;;2.02;1.87;;;;;;;16.22;72.19;99390.51;1684420;84;21030;-85
2022/09/14 07:45:54;;;;;;;1.45;1.42;;;;;;;16.29;71.67;99393.83;1671850;82;20958;-85
2022/09/14 07:48:20;;;;;;;;;;;;;;;16.39;72.02;99390.97;1670948;84;21022;-83
2022/09/14 07:50:46;;;;;;;3.98;2.42;;;;;;;16.49;71.50;99381.16;1642312;84;21143;-80
2022/09/14 07:53:13;;;;;;;;;;;;;;;16.45;70.49;99381.38;1682808;84;21085;-83
2022/09/14 07:55:40;;;;;;;1.82;1.65;;;;;;;16.49;70.37;99378.47;1671055;84;20450;-73
2022/09/14 07:58:06;;;;;;;7.45;3.37;;;;;;;16.56;68.54;99391.74;1674103;84;21030;-72
2022/09/14 08:00:34;;;;;;;1.70;1.60;;;;;;;16.56;68.54;99391.74;1666752;84;21534;-74
2022/09/14 08:03:00;;;;;;;1.97;1.33;;;;;;;16.58;68.26;99386.12;1671125;84;21026;-73
2022/09/14 08:05:26;;;;;;;3.87;1.55;;;;;;;16.65;68.56;99380.82;1644761;85;21110;-73
2022/09/14 08:07:56;;;;;;;3.27;1.85;;;;;;;16.73;66.97;99375.52;1666654;85;21657;-74
2022/09/14 08:10:23;;;;;;;3.25;1.55;;;;;;;16.78;67.16;99374.21;1667547;84;21005;-72
2022/09/14 08:12:52;;;;;;;1.45;1.35;;;;;;;16.83;66.43;99375.66;1670130;84;21148;-71
2022/09/14 08:15:21;;;;;;;0.95;0.95;;;;;;;16.85;67.20;99363.30;1694125;84;21056;-72
2022/09/14 08:17:48;;;;;;;3.45;2.05;;;;;;;16.96;67.39;99362.88;1669197;84;21070;-73
2022/09/14 08:20:15;;;;;;;1.90;1.52;;;;;;;17.00;64.55;99355.36;1670788;84;21229;-72
2022/09/14 08:22:43;;;;;;;2.22;1.75;;;;;;;17.04;63.99;99359.71;1663560;84;21007;-73
2022/09/14 08:25:10;;;;;;;4.25;1.90;;;;;;;17.07;62.74;99356.52;1677387;84;21503;-77
2022/09/14 08:27:37;;;;;;;5.40;1.67;;;;;;;17.07;62.98;99363.25;1651430;85;21526;-73
2022/09/14 08:30:05;;;;;;;1.70;1.40;;;;;;;17.12;62.60;99357.89;1666161;85;21076;-74
2022/09/14 08:32:32;;;;;;;1.47;1.12;;;;;;;17.22;61.21;99357.20;1679926;85;21012;-74
2022/09/14 08:34:58;;;;;;;1.95;0.90;;;;;;;17.29;60.44;99354.56;1672792;85;21083;-71
2022/09/14 08:37:24;;;;;;;0.85;0.60;;;;;;;17.32;60.58;99346.50;1667895;84;21629;-71
2022/09/14 08:39:51;;;;;;;;;;;;;;;17.30;60.57;99351.33;1669646;85;21031;-71
2022/09/14 08:42:21;;;;;;;1.07;0.80;;;;;;;17.29;61.58;99342.96;1695661;83;20130;-81
2022/09/14 08:44:55;;;;;;;1.35;1.25;;;;;;;17.26;61.53;99348.88;1683893;83;21042;-80
2022/09/14 08:47:33;;;;;;;1.60;0.98;;;;;;;17.29;62.71;99348.34;1693088;83;21026;-78
2022/09/14 08:50:18;;;;;;;1.30;1.20;;;;;;;17.36;62.27;99338.72;1672948;84;21058;-84
2022/09/14 08:52:52;;;;;;;1.72;0.90;;;;;;;17.42;62.31;99343.06;1672426;84;21057;-76
2022/09/14 08:55:54;;;;;;;0.70;0.70;;;;;;;17.47;61.27;99338.53;1696496;84;21054;-75
2022/09/14 08:59:16;;;;;;;0.65;0.65;;;;;;;17.52;61.23;99336.42;1680146;83;21550;-75
2022/09/14 09:02:18;;;;;;;1.92;1.07;;;;;;;17.59;59.69;99334.84;1665978;85;21121;-75
2022/09/14 09:04:52;;;;;;;0.40;0.37;;;;;;;17.55;59.28;99333.73;1664163;85;20998;-82
2022/09/14 09:07:39;;;;;;;0.78;0.53;;;;;;;17.49;60.20;99324.80;1624823;86;21806;-83
2022/09/14 09:10:06;;;;;;;1.00;0.30;;;;;;;17.43;59.95;99325.30;1652680;86;21010;-81
2022/09/14 09:12:38;;;;;;;2.10;0.70;;;;;;;17.41;60.30;99327.98;1617427;87;20988;-83
2022/09/14 09:15:22;;;;;;;1.65;0.82;;;;;;;17.35;59.95;99316.88;1661390;85;21094;-82
2022/09/14 09:17:59;;;;;;;0.68;0.47;;;;;;;17.30;60.42;99325.20;1662123;84;21033;-76
2022/09/14 09:20:36;;;;;;;3.33;0.50;;;;;;;16.59;61.50;99229.81;1655567;85;21093;-72
2022/09/14 09:23:18;;;;;;;0.30;0.30;;;;;;;17.09;60.71;99319.38;1656213;85;21019;-82
2022/09/14 09:26:17;;;;;;;0.90;0.60;;;;;;;16.96;61.62;99323.84;1651729;85;21041;-84
2022/09/14 09:28:48;;;;;;;0.70;0.40;;;;;;;16.49;62.45;99274.91;1660156;85;20990;-74
2022/09/14 09:31:17;;;;;;;5.10;1.32;;;;;;;16.63;62.34;99333.69;1691442;83;21006;-73
2022/09/14 09:33:49;;;;;;;0.90;0.65;;;;;;;16.51;63.29;99337.33;1670670;84;21403;-73
2022/09/14 09:36:17;;;;;;;1.07;0.70;;;;;;;16.42;63.49;99341.53;1637114;86;21110;-73
2022/09/14 09:38:45;;;;;;;0.33;0.30;;;;;;;16.37;63.58;99340.66;1661754;85;21083;-72
2022/09/14 09:41:26;;;;;;;0.30;0.30;;;;;;;16.18;63.91;99347.71;1651802;85;21523;-73
2022/09/14 09:44:10;;;;;;;2.40;0.72;;;;;;;16.18;63.91;99347.71;1678579;84;21143;-81
2022/09/14 09:46:41;;;;;;;0.80;0.68;;;;;;;16.04;64.11;99348.59;1680543;84;21076;-75
2022/09/14 09:49:34;;;;;;;1.85;0.50;;;;;;;15.97;64.61;99349.29;1662783;84;21131;-78
2022/09/14 09:52:14;;;;;;;0.50;0.50;;;;;;;15.87;64.87;99349.16;1625540;86;22163;-76
2022/09/14 09:54:52;;;;;;;2.27;0.50;;;;;;;15.72;66.08;99338.44;1631529;86;21669;-76
2022/09/14 09:57:22;;;;;;;0.70;0.60;;;;;;;15.72;66.08;99338.44;1634450;86;20997;-77
2022/09/14 09:59:49;;;;;;;3.55;1.05;;;;;;;15.60;66.61;99337.73;1626906;85;21177;-75
2022/09/14 10:02:26;;;;;;;0.90;0.60;;;;;;;15.62;66.96;99342.87;1668045;84;21010;-75
2022/09/14 10:05:20;;;;;;;1.75;0.85;;;;;;;15.60;66.73;99339.61;1657457;85;21002;-79
2022/09/14 10:07:57;;;;;;;0.95;0.62;;;;;;;15.54;67.86;99330.13;1661183;85;21030;-80
2022/09/14 10:10:37;;;;;;;2.42;1.00;;;;;;;15.54;67.86;99330.13;1664159;85;21499;-83
2022/09/14 10:13:07;;;;;;;3.20;1.50;;;;;;;15.57;68.54;99334.19;1650414;85;21015;-81
2022/09/14 10:15:35;;;;;;;2.60;1.00;;;;;;;15.58;68.13;99337.97;1663005;85;21045;-80
2022/09/14 10:18:15;;;;;;;1.75;1.02;;;;;;;15.62;68.38;99331.58;1652365;86;21069;-81
2022/09/14 10:21:02;;;;;;;0.82;0.82;;;;;;;15.67;68.10;99335.70;1666073;82;21082;-82
2022/09/14 10:23:34;;;;;;;0.90;0.90;;;;;;;15.74;68.39;99329.63;1665678;84;21528;-84
2022/09/14 10:26:15;;;;;;;0.70;0.70;;;;;;;15.78;66.64;99329.95;1672484;84;21045;-83
2022/09/14 10:28:45;;;;;;;1.50;1.02;;;;;;;15.83;67.40;99331.91;1641671;85;21048;-84
2022/09/14 10:31:25;;;;;;;0.95;0.82;;;;;;;15.80;67.97;99334.55;1658364;85;21037;-84
2022/09/14 10:33:56;;;;;;;1.02;1.02;;;;;;;15.76;69.74;99338.28;1663734;85;21041;-85
2022/09/14 10:36:29;;;;;;;1.20;1.20;;;;;;;15.69;70.36;99338.11;1639929;85;21708;-84
2022/09/14 10:39:03;;;;;;;2.00;1.25;;;;;;;15.63;70.93;99338.56;1665584;85;21041;-84
2022/09/14 10:42:00;;;;;;;1.45;1.22;;;;;;;15.60;71.18;99338.27;1657212;85;21680;-83
2022/09/14 10:44:35;;;;;;;0.75;0.75;;;;;;;15.55;72.15;99337.65;1645522;86;21589;-82
2022/09/14 10:47:39;;;;;;;2.98;2.67;;;;;;;15.50;73.17;99342.93;1653601;85;21006;-83
2022/09/14 10:50:34;;;;;;;2.00;1.67;;;;;;;15.47;73.64;99340.76;1656253;85;22207;-82
2022/09/14 10:53:22;;;;;;;5.60;1.30;;;;;;;15.42;74.71;99333.95;1654996;85;21007;-83
2022/09/14 10:56:14;;;;;;;3.10;1.37;;;;;;;15.33;76.45;99336.22;1662070;85;21080;-82
2022/09/14 10:59:16;;;;;;;1.62;1.52;;;;;;;15.24;75.98;99329.12;1648326;85;21068;-82
2022/09/14 11:02:18;;;;;;;1.57;1.47;;;;;;;15.16;76.43;99326.81;1655014;85;21065;-81
2022/09/14 11:04:56;;;;;;;2.08;1.50;;;;;;;15.12;77.23;99327.02;1651377;85;21008;-81
2022/09/14 11:07:39;;;;;;;1.42;1.42;;;;;;;15.09;78.11;99315.45;1649529;85;21100;-84
2022/09/14 11:10:17;;;;;;;2.45;1.92;;;;;;;15.09;79.15;99311.42;1649419;85;21213;-82
2022/09/14 11:13:16;;;;;;;2.42;2.22;;;;;;;15.09;78.54;99311.42;1660855;85;21393;-85
2022/09/14 11:15:51;;;;;;;2.00;1.90;;;;;;;15.12;79.19;99309.58;1679089;83;21597;-87
2022/09/14 11:18:38;;;;;;;3.37;3.08;;;;;;;15.14;79.18;99311.48;1624544;86;21605;-84
2022/09/14 11:21:19;;;;;;;7.03;2.10;;;;;;;15.14;79.25;99303.44;1672476;84;21448;-81
2022/09/14 11:23:53;;;;;;;3.95;1.65;;;;;;;15.15;79.47;99303.73;1682341;85;21261;-82
2022/09/14 11:26:30;;;;;;;6.58;2.12;;;;;;;15.16;79.92;99304.84;1682302;85;21491;-83
2022/09/14 11:29:26;;;;;;;3.10;2.35;;;;;;;15.21;80.22;99308.66;1679514;84;21027;-75
2022/09/14 11:32:14;;;;;;;3.22;2.50;;;;;;;15.23;79.60;99302.52;1676013;84;21109;-74
2022/09/14 11:34:46;;;;;;;2.85;2.65;;;;;;;15.26;80.59;99302.84;1683535;85;21018;-75
2022/09/14 11:37:17;;;;;;;4.50;2.20;;;;;;;15.27;80.02;99296.40;1644236;86;21083;-75
2022/09/14 11:39:47;;;;;;;2.75;2.50;;;;;;;15.31;80.20;99294.04;1656563;86;21063;-75
2022/09/14 11:42:25;;;;;;;4.08;2.70;;;;;;;15.37;80.21;99293.09;1648200;86;21053;-75
2022/09/14 11:44:59;;;;;;;4.17;2.25;;;;;;;15.44;80.51;99287.53;1645045;86;21132;-76
2022/09/14 11:47:30;;;;;;;3.83;2.90;;;;;;;15.50;80.51;99282.00;1644836;86;21157;-75
2022/09/14 11:50:24;;;;;;;5.95;2.80;;;;;;;15.59;80.44;99266.26;1646643;85;21088;-74
2022/09/14 11:53:13;;;;;;;6.80;4.20;;;;;;;15.66;81.37;99277.64;1642302;86;21005;-76
2022/09/14 11:55:46;;;;;;;4.78;3.90;;;;;;;15.76;81.26;99285.06;1644862;86;21474;-75
2022/09/14 11:58:26;;;;;;;4.92;3.02;;;;;;;15.82;81.49;99273.84;1662044;84;20995;-74
2022/09/14 12:01:03;;;;;;;3.80;2.98;;;;;;;15.86;81.63;99277.66;1665348;85;21116;-77
2022/09/14 12:04:14;;;;;;;2.98;2.77;;;;;;;15.87;82.27;99279.30;1671249;85;21065;-74
2022/09/14 12:06:53;;;;;;;3.52;3.25;;;;;;;15.87;82.67;99287.36;1661218;85;21027;-74